createdAt,value
2022-12-06T00:01:21.136Z,8.70
2022-12-06T00:03:53.442Z,14.50
2022-12-06T00:06:22.358Z,13.00
2022-12-06T00:08:50.627Z,15.70
2022-12-06T00:11:21.032Z,13.40
2022-12-06T00:13:52.825Z,11.10
2022-12-06T00:16:20.071Z,12.30
2022-12-06T00:18:47.478Z,13.20
2022-12-06T00:21:23.938Z,12.10
2022-12-06T00:23:57.202Z,9.90
2022-12-06T00:26:24.157Z,19.30
2022-12-06T00:28:55.993Z,15.20
2022-12-06T00:31:25.803Z,15.20
2022-12-06T00:33:53.306Z,17.90
2022-12-06T00:36:23.820Z,13.80
2022-12-06T00:38:51.315Z,8.10
2022-12-06T00:41:23.591Z,10.70
2022-12-06T00:43:51.764Z,13.20
2022-12-06T00:46:24.559Z,15.40
2022-12-06T00:48:53.239Z,15.40
2022-12-06T00:51:21.665Z,11.70
2022-12-06T00:53:49.201Z,16.90
2022-12-06T00:56:16.654Z,8.30
2022-12-06T00:58:44.417Z,19.00
2022-12-06T01:01:12.535Z,12.00
2022-12-06T01:03:40.551Z,17.90
2022-12-06T01:06:11.340Z,20.20
2022-12-06T01:08:39.541Z,12.20
2022-12-06T01:11:07.440Z,12.30
2022-12-06T01:13:35.206Z,21.10
2022-12-06T01:16:10.884Z,18.70
2022-12-06T01:18:38.392Z,15.00
2022-12-06T01:21:14.525Z,14.30
2022-12-06T01:23:43.247Z,15.50
2022-12-06T01:26:36.295Z,16.10
2022-12-06T01:29:04.581Z,12.30
2022-12-06T01:31:37.537Z,16.60
2022-12-06T01:34:13.646Z,12.00
2022-12-06T01:36:40.540Z,19.90
2022-12-06T01:39:09.944Z,16.60
2022-12-06T01:41:38.387Z,13.90
2022-12-06T01:44:06.304Z,11.50
2022-12-06T01:46:41.545Z,15.10
2022-12-06T01:49:11.249Z,22.70
2022-12-06T01:51:44.893Z,16.00
2022-12-06T01:54:14.437Z,11.70
2022-12-06T01:56:41.240Z,10.70
2022-12-06T01:59:09.226Z,10.50
2022-12-06T02:01:38.621Z,20.70
2022-12-06T02:04:06.982Z,14.10
2022-12-06T02:06:35.053Z,19.80
2022-12-06T02:09:05.301Z,12.40
2022-12-06T02:11:35.348Z,16.10
2022-12-06T02:14:06.788Z,13.40
2022-12-06T02:16:39.669Z,11.30
2022-12-06T02:19:28.068Z,14.40
2022-12-06T02:22:09.839Z,20.00
2022-12-06T02:25:34.066Z,11.80
2022-12-06T02:28:22.774Z,10.90
2022-12-06T02:31:11.675Z,16.10
2022-12-06T02:33:41.288Z,10.90
2022-12-06T02:36:27.034Z,15.50
2022-12-06T02:39:02.915Z,11.00
2022-12-06T02:41:45.171Z,17.00
2022-12-06T02:44:31.547Z,16.40
2022-12-06T02:47:01.101Z,12.10
2022-12-06T02:49:32.505Z,16.10
2022-12-06T02:52:00.719Z,19.10
2022-12-06T02:54:29.423Z,11.10
2022-12-06T02:56:56.270Z,18.10
2022-12-06T02:59:23.343Z,16.40
2022-12-06T03:01:55.848Z,14.30
2022-12-06T03:04:53.303Z,17.80
2022-12-06T03:07:19.996Z,10.00
2022-12-06T03:10:08.583Z,16.90
2022-12-06T03:12:54.842Z,15.90
2022-12-06T03:16:06.738Z,14.50
2022-12-06T03:18:50.183Z,17.80
2022-12-06T03:21:52.417Z,11.10
2022-12-06T03:24:22.151Z,16.30
2022-12-06T03:26:51.006Z,11.10
2022-12-06T03:29:21.620Z,12.10
2022-12-06T03:31:50.245Z,20.00
2022-12-06T03:34:41.185Z,15.40
2022-12-06T03:37:13.007Z,19.40
2022-12-06T03:39:58.803Z,14.70
2022-12-06T03:42:26.398Z,14.30
2022-12-06T03:44:53.371Z,11.20
2022-12-06T03:47:30.603Z,14.90
2022-12-06T03:50:02.621Z,12.80
2022-12-06T03:52:30.233Z,14.20
2022-12-06T03:54:57.150Z,17.50
2022-12-06T03:57:24.155Z,21.60
2022-12-06T03:59:50.997Z,17.90
2022-12-06T04:02:18.455Z,16.10
2022-12-06T04:04:45.539Z,18.00
2022-12-06T04:07:12.520Z,13.70
2022-12-06T04:10:03.068Z,14.60
2022-12-06T04:12:52.043Z,16.90
2022-12-06T04:15:20.394Z,17.80
2022-12-06T04:18:05.859Z,12.40
2022-12-06T04:20:53.208Z,14.60
2022-12-06T04:23:21.073Z,13.00
2022-12-06T04:25:48.319Z,10.80
2022-12-06T04:28:33.804Z,17.10
2022-12-06T04:31:22.322Z,13.50
2022-12-06T04:34:09.380Z,15.40
2022-12-06T04:36:56.974Z,14.20
2022-12-06T04:39:24.351Z,12.00
2022-12-06T04:42:10.203Z,17.70
2022-12-06T04:44:38.951Z,18.40
2022-12-06T04:47:06.553Z,16.80
2022-12-06T04:49:35.127Z,22.80
2022-12-06T04:52:03.792Z,15.50
2022-12-06T04:54:30.974Z,13.90
2022-12-06T04:56:59.106Z,17.60
2022-12-06T04:59:28.027Z,10.80
2022-12-06T05:01:55.707Z,15.00
2022-12-06T05:04:23.103Z,21.80
2022-12-06T05:06:50.020Z,20.70
2022-12-06T05:09:16.782Z,20.90
2022-12-06T05:11:43.625Z,15.10
2022-12-06T05:14:10.596Z,14.30
2022-12-06T05:16:37.444Z,21.40
2022-12-06T05:19:04.426Z,19.40
2022-12-06T05:21:31.436Z,13.90
2022-12-06T05:23:58.274Z,12.30
2022-12-06T05:26:28.008Z,8.80
2022-12-06T05:28:55.993Z,17.60
2022-12-06T05:31:24.094Z,13.30
2022-12-06T05:33:51.298Z,16.40
2022-12-06T05:36:22.310Z,17.20
2022-12-06T05:38:51.795Z,16.00
2022-12-06T05:41:21.438Z,11.60
2022-12-06T05:43:49.046Z,19.10
2022-12-06T05:46:16.106Z,15.70
2022-12-06T05:48:43.063Z,12.30
2022-12-06T05:51:09.891Z,16.30
2022-12-06T05:53:36.834Z,13.90
2022-12-06T05:56:06.127Z,20.80
2022-12-06T05:58:33.287Z,14.40
2022-12-06T06:01:00.777Z,12.10
2022-12-06T06:03:27.636Z,14.20
2022-12-06T06:05:58.442Z,12.00
2022-12-06T06:08:26.608Z,14.40
2022-12-06T06:10:53.998Z,16.70
2022-12-06T06:13:20.986Z,16.30
2022-12-06T06:15:49.615Z,15.00
2022-12-06T06:18:18.211Z,16.60
2022-12-06T06:20:50.478Z,15.90
2022-12-06T06:23:18.308Z,15.10
2022-12-06T06:25:45.607Z,18.00
2022-12-06T06:28:12.412Z,25.20
2022-12-06T06:30:39.671Z,7.00
2022-12-06T06:33:06.694Z,11.40
2022-12-06T06:35:33.719Z,18.70
2022-12-06T06:38:01.079Z,19.40
2022-12-06T06:40:28.762Z,12.90
2022-12-06T06:42:56.772Z,10.10
2022-12-06T06:45:28.727Z,11.70
2022-12-06T06:47:55.939Z,18.90
2022-12-06T06:50:22.983Z,11.90
2022-12-06T06:52:49.813Z,18.50
2022-12-06T06:55:16.745Z,13.40
2022-12-06T06:57:44.250Z,21.20
2022-12-06T07:00:12.161Z,12.40
2022-12-06T07:02:39.306Z,15.80
2022-12-06T07:05:07.261Z,14.00
2022-12-06T07:07:34.148Z,20.50
2022-12-06T07:10:01.327Z,22.30
2022-12-06T07:12:28.571Z,11.80
2022-12-06T07:14:55.420Z,14.20
2022-12-06T07:17:24.075Z,15.30
2022-12-06T07:19:50.931Z,15.20
2022-12-06T07:22:17.754Z,19.00
2022-12-06T07:24:50.713Z,12.70
2022-12-06T07:27:19.171Z,17.80
2022-12-06T07:29:47.185Z,15.30
2022-12-06T07:32:13.958Z,15.80
2022-12-06T07:34:40.742Z,20.50
2022-12-06T07:37:07.599Z,14.50
2022-12-06T07:39:34.435Z,16.80
2022-12-06T07:42:19.531Z,18.80
2022-12-06T07:45:03.397Z,15.60
2022-12-06T07:47:34.795Z,11.30
2022-12-06T07:50:02.797Z,17.50
2022-12-06T07:52:33.261Z,20.70
2022-12-06T07:55:01.006Z,20.70
2022-12-06T07:57:28.592Z,22.80
2022-12-06T07:59:55.610Z,22.60
2022-12-06T08:02:25.399Z,18.40
2022-12-06T08:04:53.652Z,16.30
2022-12-06T08:07:25.593Z,21.50
2022-12-06T08:09:53.457Z,21.50
2022-12-06T08:12:22.056Z,12.70
2022-12-06T08:14:49.313Z,20.70
2022-12-06T08:17:16.577Z,22.70
2022-12-06T08:19:43.671Z,17.00
2022-12-06T08:22:11.473Z,12.80
2022-12-06T08:24:38.658Z,20.60
2022-12-06T08:27:06.052Z,20.10
2022-12-06T08:29:33.908Z,15.90
2022-12-06T08:32:00.693Z,13.80
2022-12-06T08:34:28.647Z,16.70
2022-12-06T08:37:00.233Z,22.30
2022-12-06T08:39:30.164Z,18.00
2022-12-06T08:42:01.759Z,14.90
2022-12-06T08:44:31.192Z,24.80
2022-12-06T08:47:00.349Z,20.70
2022-12-06T08:49:29.165Z,19.20
2022-12-06T08:51:56.104Z,23.10
2022-12-06T08:54:24.689Z,19.40
2022-12-06T08:56:52.922Z,30.00
2022-12-06T08:59:21.664Z,20.00
2022-12-06T09:01:49.117Z,26.00
2022-12-06T09:04:16.197Z,16.50
2022-12-06T09:06:44.387Z,16.90
2022-12-06T09:09:14.385Z,20.50
2022-12-06T09:11:42.172Z,19.70
2022-12-06T09:14:19.565Z,15.50
2022-12-06T09:16:50.114Z,24.40
2022-12-06T09:19:17.393Z,19.70
2022-12-06T09:21:45.786Z,24.80
2022-12-06T09:24:14.459Z,20.60
2022-12-06T09:26:41.923Z,25.60
2022-12-06T09:29:09.265Z,13.20
2022-12-06T09:31:39.859Z,25.10
2022-12-06T09:34:10.772Z,14.20
2022-12-06T09:37:02.228Z,23.30
2022-12-06T09:39:36.676Z,23.00
2022-12-06T09:42:29.421Z,21.10
2022-12-06T09:45:17.870Z,22.50
2022-12-06T09:48:05.906Z,23.40
2022-12-06T09:51:06.741Z,25.90
2022-12-06T09:53:57.897Z,18.90
2022-12-06T09:56:37.562Z,22.10
2022-12-06T09:59:28.815Z,19.20
2022-12-06T10:02:11.123Z,25.10
2022-12-06T10:04:53.614Z,26.40
2022-12-06T10:07:38.878Z,16.90
2022-12-06T10:10:18.064Z,18.60
2022-12-06T10:13:26.496Z,20.80
2022-12-06T10:16:07.297Z,23.80
2022-12-06T10:18:55.857Z,14.70
2022-12-06T10:21:37.451Z,23.90
2022-12-06T10:24:08.808Z,23.30
2022-12-06T10:26:50.142Z,17.50
2022-12-06T10:29:29.903Z,21.80
2022-12-06T10:32:05.429Z,19.70
2022-12-06T10:34:50.682Z,27.40
2022-12-06T10:37:47.213Z,20.50
2022-12-06T10:40:15.987Z,22.70
2022-12-06T10:42:51.572Z,23.90
2022-12-06T10:46:18.206Z,21.00
2022-12-06T10:49:00.429Z,18.90
2022-12-06T10:52:09.998Z,26.70
2022-12-06T10:54:39.863Z,21.40
2022-12-06T10:57:16.911Z,18.10
2022-12-06T11:00:14.641Z,19.80
2022-12-06T11:02:54.700Z,24.70
2022-12-06T11:05:24.414Z,26.40
2022-12-06T11:07:56.377Z,16.80
2022-12-06T11:10:28.229Z,14.60
2022-12-06T11:13:09.400Z,13.30
2022-12-06T11:15:42.264Z,26.40
2022-12-06T11:18:17.254Z,22.50
2022-12-06T11:20:56.718Z,20.00
2022-12-06T11:23:32.361Z,24.40
2022-12-06T11:26:11.368Z,15.80
2022-12-06T11:28:43.926Z,22.00
2022-12-06T11:31:24.164Z,23.30
2022-12-06T11:33:51.357Z,18.60
2022-12-06T11:36:20.840Z,21.20
2022-12-06T11:38:47.955Z,22.30
2022-12-06T11:41:21.955Z,18.40
2022-12-06T11:43:50.032Z,16.00
2022-12-06T11:46:18.619Z,22.70
2022-12-06T11:48:46.771Z,23.70
2022-12-06T11:51:23.511Z,13.70
2022-12-06T11:54:02.256Z,20.00
2022-12-06T11:56:33.580Z,14.30
2022-12-06T11:59:16.487Z,19.60
2022-12-06T12:01:47.711Z,22.90
2022-12-06T12:04:43.680Z,19.10
2022-12-06T12:07:17.332Z,23.80
2022-12-06T12:10:00.026Z,17.30
2022-12-06T12:13:23.863Z,19.20
2022-12-06T12:15:52.772Z,16.00
2022-12-06T12:18:25.122Z,20.30
2022-12-06T12:20:53.634Z,19.20
2022-12-06T12:23:38.326Z,16.30
2022-12-06T12:26:20.074Z,16.70
2022-12-06T12:29:19.479Z,16.40
2022-12-06T12:31:59.513Z,20.60
2022-12-06T12:34:29.704Z,17.90
2022-12-06T12:37:00.485Z,19.80
2022-12-06T12:39:38.171Z,13.10
2022-12-06T12:42:28.108Z,17.80
2022-12-06T12:44:59.757Z,13.80
2022-12-06T12:47:27.246Z,21.20
2022-12-06T12:50:19.961Z,25.60
2022-12-06T12:52:47.334Z,13.20
2022-12-06T12:55:23.277Z,18.30
2022-12-06T12:57:55.656Z,25.70
2022-12-06T13:00:25.638Z,18.90
2022-12-06T13:02:59.436Z,23.50
2022-12-06T13:05:35.162Z,11.20
2022-12-06T13:08:19.839Z,13.30
2022-12-06T13:10:54.075Z,16.40
2022-12-06T13:13:27.772Z,16.60
2022-12-06T13:15:56.866Z,13.40
2022-12-06T13:18:28.009Z,23.70
2022-12-06T13:20:58.664Z,16.90
2022-12-06T13:23:30.070Z,21.00
2022-12-06T13:26:40.787Z,22.70
2022-12-06T13:29:43.702Z,21.70
2022-12-06T13:32:21.843Z,18.70
2022-12-06T13:34:53.616Z,18.00
2022-12-06T13:37:46.690Z,21.70
2022-12-06T13:40:32.142Z,24.30
2022-12-06T13:43:01.157Z,23.20
2022-12-06T13:45:43.062Z,27.50
2022-12-06T13:48:24.866Z,31.10
2022-12-06T13:50:51.838Z,36.80
2022-12-06T13:53:20.466Z,31.90
2022-12-06T13:55:59.950Z,35.40
2022-12-06T13:58:33.607Z,18.60
2022-12-06T14:01:00.541Z,35.50
2022-12-06T14:03:27.395Z,31.40
2022-12-06T14:06:13.825Z,22.90
2022-12-06T14:09:00.295Z,29.20
2022-12-06T14:11:29.617Z,31.00
2022-12-06T14:14:00.162Z,29.90
2022-12-06T14:16:39.168Z,22.70
2022-12-06T14:19:32.107Z,28.00
2022-12-06T14:22:03.379Z,24.20
2022-12-06T14:24:37.412Z,37.80
2022-12-06T14:27:12.417Z,37.60
2022-12-06T14:29:40.600Z,34.00
2022-12-06T14:32:08.627Z,53.40
2022-12-06T14:34:36.618Z,23.60
2022-12-06T14:37:21.397Z,31.20
2022-12-06T14:39:52.730Z,34.50
2022-12-06T14:42:39.047Z,35.60
2022-12-06T14:45:14.425Z,34.20
2022-12-06T14:47:43.614Z,37.40
2022-12-06T14:50:25.135Z,32.80
2022-12-06T14:53:13.547Z,32.30
2022-12-06T14:55:54.932Z,25.10
2022-12-06T14:58:25.813Z,29.00
2022-12-06T15:00:55.960Z,24.30
2022-12-06T15:03:28.856Z,45.40
2022-12-06T15:06:13.512Z,28.50
2022-12-06T15:09:14.237Z,31.30
2022-12-06T15:12:01.912Z,53.70
2022-12-06T15:14:46.332Z,39.00
2022-12-06T15:19:46.293Z,53.00
2022-12-06T15:22:25.372Z,34.60
2022-12-06T15:24:56.077Z,31.50
2022-12-06T15:27:26.399Z,29.60
2022-12-06T15:29:53.463Z,29.70
2022-12-06T16:01:51.510Z,21.90
2022-12-06T16:04:23.679Z,28.50
2022-12-06T16:06:52.079Z,28.30
2022-12-06T16:09:20.422Z,30.60
2022-12-06T16:11:49.099Z,26.20
2022-12-06T16:14:17.603Z,24.10
2022-12-06T16:16:46.336Z,34.50
2022-12-06T16:19:14.741Z,41.50
2022-12-06T16:21:55.031Z,33.50
2022-12-06T16:24:23.998Z,30.90
2022-12-06T16:26:52.493Z,25.60
2022-12-06T16:29:25.147Z,33.90
2022-12-06T16:31:54.460Z,34.10
2022-12-06T16:34:23.249Z,41.40
2022-12-06T16:37:09.320Z,26.90
2022-12-06T16:39:37.464Z,44.30
2022-12-06T16:42:06.432Z,17.80
2022-12-06T16:44:51.178Z,33.20
2022-12-06T16:49:49.074Z,44.20
2022-12-06T16:52:17.990Z,35.20
2022-12-06T16:54:46.461Z,43.50
2022-12-06T16:57:15.105Z,49.80
2022-12-06T16:59:43.571Z,31.00
2022-12-06T17:02:29.525Z,34.00
2022-12-06T17:05:01.924Z,35.50
2022-12-06T17:07:30.952Z,24.30
2022-12-06T17:09:59.950Z,37.00
2022-12-06T17:12:28.358Z,63.60
2022-12-06T17:14:56.451Z,42.40
2022-12-06T17:17:26.434Z,59.10
2022-12-06T17:19:56.304Z,28.50
2022-12-06T17:22:24.852Z,37.40
2022-12-06T17:24:54.030Z,32.10
2022-12-06T17:27:22.646Z,39.00
2022-12-06T17:29:51.147Z,35.70
2022-12-06T17:32:20.631Z,35.40
2022-12-06T17:34:48.965Z,31.70
2022-12-06T17:37:17.080Z,32.90
2022-12-06T17:39:45.261Z,20.10
2022-12-06T17:42:32.162Z,34.90
2022-12-06T17:45:00.727Z,20.00
2022-12-06T17:47:29.390Z,30.00
2022-12-06T17:49:57.712Z,32.60
2022-12-06T17:52:25.980Z,24.30
2022-12-06T17:54:54.145Z,37.20
2022-12-06T17:57:22.560Z,23.50
2022-12-06T17:59:50.784Z,23.80
2022-12-06T18:02:24.267Z,20.10
2022-12-06T18:04:54.065Z,23.80
2022-12-06T18:07:22.386Z,23.10
2022-12-06T18:09:50.675Z,21.70
2022-12-06T18:12:18.964Z,27.80
2022-12-06T18:14:47.112Z,21.80
2022-12-06T18:17:15.324Z,14.70
2022-12-06T18:19:46.936Z,24.00
2022-12-06T18:22:15.703Z,20.60
2022-12-06T18:24:44.975Z,21.10
2022-12-06T18:27:14.039Z,16.10
2022-12-06T18:29:42.286Z,23.30
2022-12-06T18:32:10.601Z,32.30
2022-12-06T18:34:39.611Z,30.30
2022-12-06T18:37:07.885Z,15.70
2022-12-06T18:39:36.110Z,17.40
2022-12-06T18:42:04.474Z,21.00
2022-12-06T18:44:32.562Z,17.60
2022-12-06T18:47:00.681Z,19.80
2022-12-06T18:49:29.139Z,18.50
2022-12-06T18:51:57.311Z,17.00
2022-12-06T18:54:26.688Z,17.40
2022-12-06T18:56:58.010Z,18.50
2022-12-06T18:59:27.881Z,19.20
2022-12-06T19:01:56.842Z,12.30
2022-12-06T19:04:25.175Z,23.80
2022-12-06T19:06:54.502Z,23.60
2022-12-06T19:09:23.403Z,18.60
2022-12-06T19:11:51.650Z,16.60
2022-12-06T19:14:20.180Z,17.60
2022-12-06T19:16:50.320Z,16.10
2022-12-06T19:19:20.379Z,19.50
2022-12-06T19:21:49.814Z,21.00
2022-12-06T19:24:21.601Z,18.30
2022-12-06T19:26:55.164Z,17.90
2022-12-06T19:31:52.791Z,17.70
2022-12-06T19:34:23.814Z,22.20
2022-12-06T19:36:54.126Z,22.40
2022-12-06T19:39:23.232Z,29.70
2022-12-06T19:42:10.597Z,27.50
2022-12-06T19:44:39.564Z,26.50
2022-12-06T19:47:08.139Z,25.90
2022-12-06T19:49:36.553Z,26.90
2022-12-06T19:52:04.876Z,27.10
2022-12-06T19:54:34.250Z,22.00
2022-12-06T19:57:02.885Z,22.60
2022-12-06T19:59:34.159Z,22.20
2022-12-06T20:02:03.565Z,24.70
2022-12-06T20:04:34.056Z,17.40
2022-12-06T20:07:03.997Z,18.90
2022-12-06T20:09:33.628Z,20.50
2022-12-06T20:12:04.108Z,21.70
2022-12-06T20:14:40.621Z,12.30
2022-12-06T20:17:12.244Z,15.30
2022-12-06T20:19:43.588Z,19.30
2022-12-06T20:22:13.428Z,17.10
2022-12-06T20:24:41.848Z,15.80
2022-12-06T20:27:10.682Z,15.00
2022-12-06T20:29:40.269Z,19.80
2022-12-06T20:32:10.992Z,15.90
2022-12-06T20:34:39.480Z,12.00
2022-12-06T20:37:08.009Z,14.00
2022-12-06T20:39:36.673Z,11.60
2022-12-06T20:42:07.420Z,12.10
2022-12-06T20:44:36.860Z,17.00
2022-12-06T20:47:05.710Z,15.60
2022-12-06T20:49:34.160Z,24.90
2022-12-06T20:52:03.754Z,21.90
2022-12-06T20:54:32.129Z,19.00
2022-12-06T20:57:00.339Z,18.60
2022-12-06T20:59:29.682Z,22.40
2022-12-06T21:01:58.165Z,30.80
2022-12-06T21:04:27.025Z,24.30
2022-12-06T21:06:56.472Z,18.80
2022-12-06T21:09:24.683Z,20.30
2022-12-06T21:11:52.919Z,22.10
2022-12-06T21:14:21.243Z,25.20
2022-12-06T21:16:49.559Z,33.10
2022-12-06T21:19:19.716Z,22.50
2022-12-06T21:21:53.584Z,20.60
2022-12-06T21:24:22.557Z,23.90
2022-12-06T21:26:51.052Z,18.60
2022-12-06T21:29:28.366Z,19.90
2022-12-06T21:32:02.041Z,28.30
2022-12-06T21:34:30.751Z,25.30
2022-12-06T21:36:58.899Z,22.00
2022-12-06T21:39:27.051Z,25.50
2022-12-06T21:41:55.334Z,27.60
2022-12-06T21:44:24.217Z,20.90
2022-12-06T21:46:53.955Z,19.80
2022-12-06T21:49:22.230Z,17.10
2022-12-06T21:51:53.733Z,14.30
2022-12-06T21:54:25.007Z,16.60
2022-12-06T21:56:53.170Z,23.10
2022-12-06T21:59:21.254Z,19.90
2022-12-06T22:01:50.843Z,32.90
2022-12-06T22:04:19.425Z,27.00
2022-12-06T22:06:47.598Z,16.30
2022-12-06T22:09:16.059Z,16.80
2022-12-06T22:11:44.636Z,21.20
2022-12-06T22:14:12.997Z,19.50
2022-12-06T22:16:41.221Z,20.40
2022-12-06T22:19:09.586Z,23.10
2022-12-06T22:21:37.751Z,21.20
2022-12-06T22:24:06.257Z,19.50
2022-12-06T22:26:34.901Z,26.30
2022-12-06T22:29:03.184Z,21.00
2022-12-06T22:31:33.861Z,21.90
2022-12-06T22:34:02.862Z,14.80
2022-12-06T22:36:32.329Z,23.00
2022-12-06T22:52:51.433Z,22.00
2022-12-06T22:55:19.629Z,26.70
2022-12-06T22:57:47.805Z,25.80
2022-12-06T23:00:16.137Z,23.40
2022-12-06T23:02:44.305Z,26.00
2022-12-06T23:05:12.405Z,17.50
2022-12-06T23:07:40.604Z,24.10
2022-12-06T23:10:10.315Z,20.70
2022-12-06T23:12:39.759Z,15.20
2022-12-06T23:15:08.434Z,21.00
2022-12-06T23:17:36.550Z,21.40
2022-12-06T23:20:06.015Z,25.70
2022-12-06T23:22:34.135Z,28.50
2022-12-06T23:25:02.279Z,27.20
2022-12-06T23:27:30.474Z,21.40
2022-12-06T23:29:58.926Z,21.20
2022-12-06T23:32:27.235Z,21.40
2022-12-06T23:34:55.341Z,17.50
2022-12-06T23:37:23.580Z,22.00
2022-12-06T23:39:51.734Z,21.80
2022-12-06T23:42:19.862Z,21.10
2022-12-06T23:44:47.987Z,24.20
2022-12-06T23:47:16.030Z,32.20
2022-12-06T23:49:44.196Z,20.50
2022-12-06T23:52:12.284Z,34.40
2022-12-06T23:54:40.401Z,35.20
2022-12-06T23:57:08.536Z,28.60
2022-12-06T23:59:36.661Z,31.20
